Time;durP1;ratioP1;P1;durP2;ratioP2;P2;SDS_P1;SDS_P2;PMS_P1;PMS_P2;Temp;Humidity;BMP_temperature;BMP_pressure;BME280_temperature;BME280_humidity;BME280_pressure;Samples;Min_cycle;Max_cycle;Signal;HPM_P1;HPM_P2
2022/10/09 00:00:47;;;;;;;;;;;12.10;79.00;;;18.08;100.00;62537.16;5030763;28;20148;-82
2022/10/09 00:03:16;;;;;;;;;;;12.10;78.90;;;-151.14;100.00;62537.16;5014594;28;19921;-83
2022/10/09 00:05:44;;;;;;;;;;;12.10;78.90;;;11.11;100.00;62537.16;5015209;28;20124;-82
2022/10/09 00:08:12;;;;;;;;;;;12.10;78.90;;;11.09;100.00;62537.16;5031024;28;19921;-82
2022/10/09 00:10:43;;;;;;;;;;;12.10;78.90;;;11.08;100.00;62537.16;5031569;28;19921;-82
2022/10/09 00:13:11;;;;;;;;;;;12.10;79.10;;;-151.14;100.00;62537.16;5031438;28;19921;-83
2022/10/09 00:15:39;;;;;;;;;;;12.10;79.10;;;-151.14;100.00;62537.16;5031270;28;19921;-82
2022/10/09 00:18:07;;;;;;;;;;;12.10;78.90;;;-151.14;100.00;62537.16;5031608;28;19928;-82
2022/10/09 00:20:37;;;;;;;;;;;12.10;78.90;;;-151.14;100.00;62537.16;5031340;28;19928;-82
2022/10/09 00:36:29;;;;;;;;;;;12.10;78.80;;;-151.14;100.00;62537.16;5038340;28;19913;-82
2022/10/09 00:38:58;;;;;;;;;;;12.00;78.80;;;-151.14;100.00;62537.16;5014688;28;20094;-82
2022/10/09 00:41:28;;;;;;;;;;;12.00;78.60;;;11.05;100.00;62537.16;5031030;28;20120;-82
2022/10/09 00:43:57;;;;;;;;;;;12.00;78.70;;;-151.14;100.00;62537.16;5014200;28;20116;-83
2022/10/09 00:46:33;;;;;;;;;;;12.00;78.80;;;-151.14;100.00;62537.16;5032172;28;19927;-83
2022/10/09 00:49:05;;;;;;;;;;;12.00;78.80;;;11.03;100.00;62537.16;5032133;28;19936;-83
2022/10/09 00:51:33;;;;;;;;;;;12.00;78.80;;;-151.14;100.00;62537.16;5030738;28;20116;-83
2022/10/09 00:54:03;;;;;;;;;;;12.00;78.70;;;-151.14;100.00;62537.16;5030598;28;19928;-83
2022/10/09 00:59:54;;;;;;;;;;;12.00;78.70;;;-151.14;100.00;62537.16;5031838;28;19913;-82
2022/10/09 01:02:37;;;;;;;;;;;12.00;78.80;;;-151.14;100.00;62537.16;5030825;28;19921;-82
2022/10/09 01:05:06;;;;;;;;;;;12.00;78.80;;;18.08;100.00;62537.16;5030170;28;19921;-82
2022/10/09 01:07:38;;;;;;;;;;;12.00;78.90;;;-151.14;100.00;62537.16;5030675;28;20227;-82
2022/10/09 01:10:10;;;;;;;;;;;12.00;78.90;;;11.03;100.00;62537.16;5030684;28;19927;-82
2022/10/09 01:12:42;;;;;;;;;;;12.00;78.90;;;11.02;100.00;62537.16;5047268;28;19921;-83
2022/10/09 01:15:16;;;;;;;;;;;12.00;78.80;;;-151.14;100.00;62537.16;5013658;28;19927;-83
2022/10/09 01:17:48;;;;;;;;;;;12.00;78.80;;;-151.14;100.00;62537.16;5014274;28;19941;-82
2022/10/09 01:20:30;;;;;;;;;;;12.00;78.90;;;-151.14;100.00;62537.16;5012954;28;19928;-82
2022/10/09 01:23:12;;;;;;;;;;;12.00;78.80;;;-151.14;100.00;62537.16;5030516;28;20208;-82
2022/10/09 01:25:46;;;;;;;;;;;12.00;78.70;;;11.00;100.00;62537.16;5030477;28;19928;-82
2022/10/09 01:28:15;;;;;;;;;;;12.00;78.80;;;11.00;100.00;62537.16;5031652;28;19921;-82
2022/10/09 01:30:43;;;;;;;;;;;12.00;78.90;;;-151.14;100.00;62537.16;5031484;28;19921;-82
2022/10/09 01:33:11;;;;;;;;;;;12.00;78.70;;;-151.14;100.00;62537.16;5014084;28;19928;-82
2022/10/09 01:35:40;;;;;;;;;;;12.00;78.90;;;-151.14;100.00;62537.16;5013825;28;19921;-82
2022/10/09 01:38:08;;;;;;;;;;;12.00;79.00;;;-151.14;100.00;62537.16;5013895;28;19921;-82
2022/10/09 01:40:36;;;;;;;;;;;12.00;79.00;;;-151.14;100.00;62537.16;5030224;28;19922;-82
2022/10/09 01:43:04;;;;;;;;;;;12.00;78.90;;;-151.14;100.00;62537.16;5031444;28;19921;-82
2022/10/09 01:45:41;;;;;;;;;;;12.00;79.00;;;-151.14;100.00;62537.16;5029647;28;19927;-82
2022/10/09 01:48:12;;;;;;;;;;;12.00;79.80;;;;;;5030153;28;19921;-82
2022/10/09 01:50:41;;;;;;;;;;;12.00;79.00;;;11.02;100.00;62537.16;5030266;28;20209;-82
2022/10/09 01:53:11;;;;;;;;;;;12.00;79.00;;;10.99;100.00;62537.16;5030010;28;19921;-82
2022/10/09 01:55:42;;;;;;;;;;;12.00;78.90;;;-151.14;100.00;62537.16;5046338;28;19921;-82
2022/10/09 01:58:14;;;;;;;;;;;12.00;78.80;;;10.99;100.00;62537.16;5030012;28;19921;-82
2022/10/09 02:00:44;;;;;;;;;;;12.00;79.00;;;-151.14;100.00;62537.16;5036904;28;19921;-83
2022/10/09 02:03:13;;;;;;;;;;;12.00;79.00;;;10.97;100.00;62537.16;5066624;28;20213;-82
2022/10/09 02:05:41;;;;;;;;;;;12.00;78.90;;;-151.14;100.00;62537.16;5049738;28;20212;-82
2022/10/09 02:08:09;;;;;;;;;;;12.00;79.00;;;-151.14;100.00;62537.16;5050975;28;19920;-83
2022/10/09 02:10:37;;;;;;;;;;;12.00;79.10;;;-151.14;100.00;62537.16;5050786;28;19921;-82
2022/10/09 02:13:05;;;;;;;;;;;12.00;79.00;;;-151.14;100.00;62537.16;5050962;28;19927;-82
2022/10/09 02:15:37;;;;;;;;;;;12.00;79.10;;;10.96;100.00;62537.16;5049245;28;19921;-83
2022/10/09 02:18:09;;;;;;;;;;;11.90;79.10;;;-151.14;100.00;62537.16;5049705;28;19921;-83
2022/10/09 02:20:37;;;;;;;;;;;11.90;79.30;;;-151.14;100.00;62537.16;5050607;28;19921;-82
2022/10/09 02:23:06;;;;;;;;;;;12.00;79.20;;;-151.14;100.00;62537.16;5049584;28;19935;-83
2022/10/09 02:25:34;;;;;;;;;;;12.00;79.10;;;10.95;100.00;62537.16;5049108;28;19921;-83
2022/10/09 02:28:02;;;;;;;;;;;12.00;79.10;;;10.95;100.00;62537.16;5049742;28;19927;-82
2022/10/09 02:30:34;;;;;;;;;;;12.00;79.10;;;-151.14;100.00;62537.16;5049724;28;19928;-82
2022/10/09 02:33:02;;;;;;;;;;;12.00;79.30;;;-151.14;100.00;62537.16;5052924;28;19943;-82
2022/10/09 02:35:31;;;;;;;;;;;11.90;79.20;;;-151.14;100.00;62537.16;5036115;28;19920;-82
2022/10/09 02:37:59;;;;;;;;;;;11.90;79.20;;;-151.14;100.00;62537.16;5052938;28;19920;-82
2022/10/09 02:40:27;;;;;;;;;;;11.90;79.20;;;-151.14;100.00;62537.16;5052711;28;19921;-83
2022/10/09 02:42:56;;;;;;;;;;;11.90;79.20;;;-151.14;100.00;62537.16;5054099;28;19920;-82
2022/10/09 02:45:24;;;;;;;;;;;11.90;79.20;;;-151.14;100.00;62537.16;5053504;28;19920;-82
2022/10/09 02:47:52;;;;;;;;;;;12.00;79.20;;;-151.14;100.00;62537.16;5052806;28;19927;-82
2022/10/09 02:50:20;;;;;;;;;;;11.90;79.20;;;-151.14;100.00;62537.16;5069294;28;19921;-82
2022/10/09 02:52:49;;;;;;;;;;;11.90;79.20;;;10.94;100.00;62537.16;5052788;28;19921;-82
2022/10/09 02:55:17;;;;;;;;;;;11.90;79.40;;;-151.14;100.00;62537.16;5051969;28;19927;-82
2022/10/09 02:57:45;;;;;;;;;;;11.90;79.50;;;-151.14;100.00;62537.16;5052784;28;19921;-82
2022/10/09 03:00:14;;;;;;;;;;;11.90;79.30;;;-151.14;100.00;62537.16;5052382;28;19920;-82
2022/10/09 03:02:42;;;;;;;;;;;11.90;79.40;;;-151.14;100.00;62537.16;5052695;28;20307;-82
2022/10/09 03:05:10;;;;;;;;;;;11.90;79.30;;;-151.14;100.00;62537.16;5051897;28;19921;-83
2022/10/09 03:07:38;;;;;;;;;;;11.90;79.40;;;-151.14;100.00;62537.16;5052285;28;19920;-83
2022/10/09 03:10:08;;;;;;;;;;;11.90;79.40;;;-151.14;100.00;62537.16;5052302;28;19940;-82
2022/10/09 03:12:36;;;;;;;;;;;11.90;79.40;;;-151.14;100.00;62537.16;5052402;28;19921;-82
2022/10/09 03:15:05;;;;;;;;;;;11.90;79.50;;;-151.14;100.00;62537.16;5052964;28;20207;-82
2022/10/09 03:17:33;;;;;;;;;;;11.90;79.40;;;-151.14;100.00;62537.16;5035664;28;19921;-82
2022/10/09 03:20:01;;;;;;;;;;;11.90;79.40;;;-151.14;100.00;62537.16;5052209;28;20209;-82
2022/10/09 03:22:30;;;;;;;;;;;11.90;79.30;;;-151.14;100.00;62537.16;5052591;28;19921;-82
2022/10/09 03:24:58;;;;;;;;;;;11.90;79.50;;;10.90;100.00;62537.16;5052779;28;19921;-82
2022/10/09 03:27:27;;;;;;;;;;;11.90;79.40;;;-151.14;100.00;62537.16;5044936;28;19928;-82
2022/10/09 03:29:55;;;;;;;;;;;11.90;79.60;;;-151.14;100.00;62537.16;5032215;28;19921;-82
2022/10/09 03:32:23;;;;;;;;;;;11.90;79.40;;;-151.14;100.00;62537.16;5033391;28;19927;-83
2022/10/09 03:34:51;;;;;;;;;;;11.90;79.60;;;-151.14;100.00;62537.16;5031809;28;19921;-82
2022/10/09 03:37:19;;;;;;;;;;;11.90;79.70;;;-151.14;100.00;62537.16;5038235;28;19921;-82
2022/10/09 03:39:47;;;;;;;;;;;11.90;79.70;;;-151.14;100.00;62537.16;5053078;28;19921;-82
2022/10/09 03:42:15;;;;;;;;;;;11.90;79.60;;;-151.14;100.00;62537.16;5051575;28;19931;-83
2022/10/09 03:44:45;;;;;;;;;;;11.90;79.60;;;-151.14;100.00;62537.16;5050415;28;20209;-83
2022/10/09 03:47:13;;;;;;;;;;;11.90;79.60;;;-151.14;100.00;62537.16;5048649;28;19927;-83
2022/10/09 03:49:41;;;;;;;;;;;11.90;79.70;;;-151.14;100.00;62537.16;5031680;28;19927;-82
2022/10/09 03:52:09;;;;;;;;;;;11.90;79.80;;;-151.14;100.00;62537.16;5034203;28;19921;-82
2022/10/09 03:54:37;;;;;;;;;;;11.90;79.70;;;-151.14;100.00;62537.16;5052039;28;20231;-83
2022/10/09 03:57:05;;;;;;;;;;;11.90;80.40;;;-151.14;100.00;62537.16;5052641;28;19927;-82
2022/10/09 03:59:33;;;;;;;;;;;11.90;79.70;;;10.86;100.00;82629.13;5034844;28;19925;-82
2022/10/09 04:02:02;;;;;;;;;;;11.90;79.70;;;-151.14;100.00;62537.16;5051048;28;19927;-83
2022/10/09 04:04:30;;;;;;;;;;;11.90;79.90;;;-151.14;100.00;62537.16;5031046;28;19927;-82
2022/10/09 04:06:58;;;;;;;;;;;11.90;79.70;;;-151.14;100.00;62537.16;5032628;28;19921;-82
2022/10/09 04:09:26;;;;;;;;;;;11.90;79.80;;;18.08;100.00;62537.16;5050689;28;19983;-82
2022/10/09 04:11:54;;;;;;;;;;;11.80;79.70;;;-151.14;100.00;62537.16;5051086;28;19921;-82
2022/10/09 04:14:22;;;;;;;;;;;11.80;79.70;;;-151.14;100.00;62537.16;5049135;28;20226;-82
2022/10/09 04:16:50;;;;;;;;;;;11.80;79.70;;;-151.14;100.00;62537.16;5032734;28;19921;-82
2022/10/09 04:19:19;;;;;;;;;;;11.80;79.90;;;-151.14;100.00;62537.16;5032668;28;19928;-82
2022/10/09 04:21:48;;;;;;;;;;;11.90;80.00;;;-151.14;100.00;62537.16;5014879;28;19922;-83
2022/10/09 04:24:16;;;;;;;;;;;11.80;79.80;;;-151.14;100.00;62537.16;5030812;28;19921;-83
2022/10/09 04:26:44;;;;;;;;;;;11.80;79.70;;;-151.14;100.00;62537.16;5047974;28;19921;-82
2022/10/09 04:29:12;;;;;;;;;;;11.80;79.70;;;-151.14;100.00;62537.16;5031347;28;19922;-82
2022/10/09 04:31:40;;;;;;;;;;;11.80;79.70;;;10.85;100.00;62537.16;5031235;28;19921;-82
2022/10/09 04:34:08;;;;;;;;;;;11.80;79.60;;;-151.14;100.00;62537.16;5031926;28;19921;-82
2022/10/09 04:36:37;;;;;;;;;;;11.80;79.70;;;-151.14;100.00;62537.16;5031147;28;20205;-82
2022/10/09 04:39:05;;;;;;;;;;;11.80;79.70;;;-151.14;100.00;62537.16;5014778;28;19921;-82
2022/10/09 04:41:34;;;;;;;;;;;11.80;79.70;;;-151.14;100.00;62537.16;5030967;28;19928;-82
2022/10/09 04:44:02;;;;;;;;;;;11.80;79.70;;;-151.14;100.00;62537.16;5030680;28;19927;-83
2022/10/09 04:46:30;;;;;;;;;;;11.80;79.80;;;-151.14;100.00;62537.16;5047697;28;19921;-82
2022/10/09 04:48:58;;;;;;;;;;;11.80;79.70;;;-151.14;100.00;62537.16;5032158;28;20265;-83
2022/10/09 04:51:26;;;;;;;;;;;11.80;79.70;;;-151.14;100.00;62537.16;5030937;28;19921;-82
2022/10/09 04:53:56;;;;;;;;;;;11.80;79.70;;;-151.14;100.00;62537.16;5013875;28;19921;-82
2022/10/09 04:56:24;;;;;;;;;;;11.80;79.90;;;-151.14;100.00;62537.16;5032100;28;19929;-83
2022/10/09 04:58:53;;;;;;;;;;;11.80;79.80;;;-151.14;100.00;62537.16;5031988;28;20113;-83
2022/10/09 05:01:22;;;;;;;;;;;11.80;79.70;;;-151.14;100.00;62537.16;5014431;28;19927;-82
2022/10/09 05:03:50;;;;;;;;;;;11.80;79.80;;;-151.14;100.00;62537.16;5013715;28;19921;-82
2022/10/09 05:06:18;;;;;;;;;;;11.80;79.80;;;-151.14;100.00;62537.16;5014342;28;19935;-82
2022/10/09 05:08:46;;;;;;;;;;;11.80;79.60;;;-151.14;100.00;62537.16;5031949;28;19921;-83
2022/10/09 05:11:17;;;;;;;;;;;11.80;79.70;;;-151.14;100.00;62537.16;5030635;28;19979;-82
2022/10/09 05:13:45;;;;;;;;;;;11.80;80.70;;;-151.14;100.00;62537.16;5013572;28;19921;-82
2022/10/09 05:16:14;;;;;;;;;;;11.80;79.90;;;-151.14;100.00;62537.16;5030722;28;19921;-83
2022/10/09 05:18:43;;;;;;;;;;;11.80;79.70;;;-151.14;100.00;62537.16;5035441;28;19921;-82
2022/10/09 05:21:11;;;;;;;;;;;11.80;79.80;;;-151.14;100.00;62537.16;5066949;28;20119;-82
2022/10/09 05:23:39;;;;;;;;;;;11.80;79.70;;;18.08;100.00;62537.16;5050954;28;19929;-82
2022/10/09 05:26:07;;;;;;;;;;;11.80;79.80;;;-151.14;100.00;62537.16;5050511;28;19927;-82
2022/10/09 05:28:37;;;;;;;;;;;11.80;79.70;;;-151.14;100.00;62537.16;5050120;28;19929;-83
2022/10/09 05:31:05;;;;;;;;;;;11.90;79.80;;;-151.14;100.00;62537.16;5051248;28;19927;-82
2022/10/09 05:33:33;;;;;;;;;;;11.90;79.70;;;-151.14;100.00;62537.16;5066568;28;19955;-82
2022/10/09 05:36:02;;;;;;;;;;;11.90;79.70;;;-151.14;100.00;62537.16;5050153;28;19921;-82
2022/10/09 05:38:30;;;;;;;;;;;11.90;79.60;;;-151.14;100.00;62537.16;5050124;28;19927;-82
2022/10/09 05:40:59;;;;;;;;;;;11.90;79.60;;;-151.14;100.00;62537.16;5051373;28;20113;-82
2022/10/09 05:43:28;;;;;;;;;;;11.90;79.40;;;-151.14;100.00;62537.16;5049442;28;19929;-82
2022/10/09 05:46:04;;;;;;;;;;;11.90;79.40;;;-151.14;100.00;62537.16;5051291;28;20128;-83
2022/10/09 05:48:32;;;;;;;;;;;11.90;79.30;;;-151.14;100.00;62537.16;5049951;28;19921;-82
2022/10/09 05:51:08;;;;;;;;;;;11.90;79.30;;;-151.14;100.00;62537.16;5050969;28;20234;-83
2022/10/09 05:53:36;;;;;;;;;;;11.90;79.10;;;-151.14;100.00;62537.16;5049482;28;19921;-82
2022/10/09 05:56:15;;;;;;;;;;;11.90;79.10;;;-151.14;100.00;62537.16;5049885;28;19927;-82
2022/10/09 05:58:43;;;;;;;;;;;11.90;79.10;;;-151.14;100.00;62537.16;5050081;28;19920;-82
2022/10/09 06:01:12;;;;;;;;;;;12.00;79.00;;;-151.14;100.00;62537.16;5051044;28;20224;-83
2022/10/09 06:03:40;;;;;;;;;;;12.00;79.00;;;-151.14;100.00;62537.16;5049314;28;19921;-82
2022/10/09 06:06:09;;;;;;;;;;;12.00;78.90;;;-151.14;100.00;62537.16;5051575;28;19921;-82
2022/10/09 06:08:37;;;;;;;;;;;12.00;78.70;;;-151.14;100.00;62537.16;5054492;28;19928;-82
2022/10/09 06:11:09;;;;;;;;;;;12.10;78.70;;;-151.14;100.00;62537.16;5054353;28;19921;-83
2022/10/09 06:13:40;;;;;;;;;;;12.10;78.40;;;-151.14;100.00;62537.16;5052968;28;19921;-83
2022/10/09 06:16:10;;;;;;;;;;;12.20;78.00;;;-151.14;100.00;62537.16;5053443;28;19921;-82
2022/10/09 06:18:40;;;;;;;;;;;12.20;77.90;;;-151.14;100.00;62537.16;5053173;28;19921;-82
2022/10/09 06:21:09;;;;;;;;;;;12.30;78.00;;;-151.14;100.00;62537.16;5053243;28;20227;-82
2022/10/09 06:23:37;;;;;;;;;;;12.40;78.30;;;-151.14;100.00;62537.16;5052742;28;20208;-82
2022/10/09 06:26:05;;;;;;;;;;;12.50;78.20;;;-151.14;100.00;62537.16;5054151;28;19927;-82
2022/10/09 06:28:33;;;;;;;;;;;12.60;78.10;;;11.62;100.00;62537.16;5036404;28;19920;-82
2022/10/09 06:31:02;;;;;;;;;;;12.60;78.00;;;-151.14;100.00;62537.16;5053998;28;19921;-83
2022/10/09 06:33:31;;;;;;;;;;;12.60;77.80;;;-151.14;100.00;62537.16;5035887;28;19920;-82
2022/10/09 06:36:01;;;;;;;;;;;12.70;77.70;;;-151.14;100.00;62537.16;5036375;28;19927;-82
2022/10/09 06:38:29;;;;;;;;;;;12.80;77.60;;;-151.14;100.00;62537.16;5054041;28;20213;-83
2022/10/09 06:41:01;;;;;;;;;;;12.80;77.60;;;-151.14;100.00;62537.16;5069574;28;20112;-82
2022/10/09 06:43:29;;;;;;;;;;;12.80;77.50;;;-151.14;100.00;62537.16;5052222;28;19921;-83
2022/10/09 06:46:00;;;;;;;;;;;12.90;77.50;;;11.91;100.00;62537.16;5052657;28;19921;-82
2022/10/09 06:48:29;;;;;;;;;;;12.90;77.40;;;11.91;100.00;82759.38;5052717;28;19925;-83
2022/10/09 06:51:02;;;;;;;;;;;12.90;77.40;;;11.98;100.00;62537.16;5053693;28;19927;-82
2022/10/09 06:53:30;;;;;;;;;;;12.90;77.40;;;11.99;100.00;62537.16;5052019;28;19927;-82
2022/10/09 06:55:58;;;;;;;;;;;13.00;77.30;;;11.99;100.00;62537.16;5035985;28;19921;-82
2022/10/09 06:58:26;;;;;;;;;;;13.00;77.40;;;11.99;100.00;62537.16;5052737;28;19921;-83
2022/10/09 07:01:03;;;;;;;;;;;13.00;77.40;;;11.99;100.00;62537.16;5035842;28;19928;-82
2022/10/09 07:03:31;;;;;;;;;;;13.00;77.30;;;11.99;100.00;62537.16;5052056;28;19921;-82
2022/10/09 07:06:08;;;;;;;;;;;13.10;77.40;;;11.99;100.00;62537.16;5040519;28;19928;-82
2022/10/09 07:08:36;;;;;;;;;;;13.10;77.50;;;11.99;100.00;82768.94;5053593;28;20120;-82
2022/10/09 07:11:11;;;;;;;;;;;13.10;77.30;;;12.20;100.00;62537.16;5053360;28;20127;-83
2022/10/09 07:13:39;;;;;;;;;;;13.10;77.20;;;12.19;100.00;62537.16;5052244;28;20212;-83
2022/10/09 07:16:07;;;;;;;;;;;13.10;77.20;;;12.18;100.00;62537.16;5052380;28;20112;-83
2022/10/09 07:18:35;;;;;;;;;;;13.20;77.20;;;12.19;100.00;62537.16;5050902;28;19921;-83
2022/10/09 07:21:03;;;;;;;;;;;13.20;77.20;;;-151.14;100.00;62537.16;5052028;28;19927;-83
2022/10/09 07:23:32;;;;;;;;;;;13.20;77.20;;;12.23;100.00;62537.16;5052703;28;19920;-83
2022/10/09 07:26:00;;;;;;;;;;;13.20;77.10;;;-151.14;100.00;62537.16;5035574;28;19920;-83
2022/10/09 07:28:29;;;;;;;;;;;13.20;77.00;;;-151.14;100.00;62537.16;5035461;28;19920;-83
2022/10/09 07:30:57;;;;;;;;;;;13.20;77.00;;;-151.14;100.00;62537.16;5051980;28;19927;-83
2022/10/09 07:33:25;;;;;;;;;;;13.20;76.80;;;-151.14;100.00;62537.16;5052577;28;19921;-83
2022/10/09 07:35:54;;;;;;;;;;;13.20;76.80;;;-151.14;100.00;62537.16;5052043;28;20119;-83
2022/10/09 07:38:23;;;;;;;;;;;13.20;76.80;;;-151.14;100.00;62537.16;5051796;28;19927;-83
2022/10/09 07:40:52;;;;;;;;;;;13.20;77.80;;;12.24;100.00;62537.16;5051925;28;19927;-83
2022/10/09 07:43:21;;;;;;;;;;;13.20;76.80;;;-151.14;100.00;62537.16;5052487;28;19927;-83
2022/10/09 07:45:49;;;;;;;;;;;13.20;77.10;;;-151.14;100.00;62537.16;5051826;28;20314;-83
2022/10/09 07:48:17;;;;;;;;;;;13.20;77.00;;;-151.14;100.00;62537.16;5052957;28;19927;-83
2022/10/09 07:50:45;;;;;;;;;;;13.20;76.90;;;-151.14;100.00;62537.16;5052794;28;19920;-83
2022/10/09 07:53:13;;;;;;;;;;;13.20;77.00;;;12.30;100.00;62537.16;5052663;28;20132;-82
2022/10/09 07:55:45;;;;;;;;;;;13.30;77.00;;;-151.14;100.00;62537.16;5035088;28;19927;-83
2022/10/09 07:58:14;;;;;;;;;;;13.30;76.90;;;-151.14;100.00;62537.16;5052839;28;20235;-82
2022/10/09 08:00:42;;;;;;;;;;;13.30;76.70;;;-151.14;100.00;62537.16;5051648;28;19921;-83
2022/10/09 08:03:10;;;;;;;;;;;13.30;76.70;;;12.34;100.00;62537.16;5051589;28;19931;-83
2022/10/09 08:05:38;;;;;;;;;;;13.30;76.70;;;-151.14;100.00;62537.16;5050860;28;19929;-83
2022/10/09 08:08:06;;;;;;;;;;;13.30;76.60;;;-151.14;100.00;62537.16;5052886;28;19921;-83
2022/10/09 08:10:34;;;;;;;;;;;13.30;76.60;;;-151.14;100.00;62537.16;5051621;28;19921;-83
2022/10/09 08:13:02;;;;;;;;;;;13.30;76.40;;;-151.14;100.00;62537.16;5052500;28;19921;-83
2022/10/09 08:15:32;;;;;;;;;;;13.40;76.40;;;-151.14;100.00;62537.16;5050886;28;19921;-83
2022/10/09 08:17:59;;;;;;;;;;;13.40;76.30;;;-151.14;100.00;62537.16;5034941;28;20116;-83
2022/10/09 08:20:28;;;;;;;;;;;13.40;76.30;;;-151.14;100.00;62537.16;5051204;28;19921;-83
2022/10/09 08:22:55;;;;;;;;;;;13.40;76.30;;;-151.14;100.00;62537.16;5051321;28;19927;-83
2022/10/09 08:25:23;;;;;;;;;;;13.40;76.10;;;-151.14;100.00;62537.16;5051791;28;19927;-82
2022/10/09 08:27:52;;;;;;;;;;;13.40;76.10;;;-151.14;100.00;62537.16;5051320;28;19927;-83
2022/10/09 08:30:20;;;;;;;;;;;13.40;76.10;;;12.45;100.00;62537.16;5050480;28;20120;-83
2022/10/09 08:32:49;;;;;;;;;;;13.40;76.00;;;-151.14;100.00;62537.16;5067744;28;19927;-83
2022/10/09 08:35:17;;;;;;;;;;;13.40;76.10;;;-151.14;100.00;62537.16;5050717;28;19921;-83
2022/10/09 08:37:45;;;;;;;;;;;13.40;76.10;;;-151.14;100.00;62537.16;5034393;28;19920;-83
2022/10/09 08:40:15;;;;;;;;;;;13.40;76.20;;;12.44;100.00;62537.16;5051068;28;19927;-83
2022/10/09 08:42:46;;;;;;;;;;;13.40;76.10;;;-151.14;100.00;62537.16;5041586;28;20094;-83
2022/10/09 08:45:14;;;;;;;;;;;13.40;76.10;;;-151.14;100.00;62537.16;5031597;28;19927;-83
2022/10/09 08:47:44;;;;;;;;;;;13.40;76.00;;;-151.14;100.00;62537.16;5014673;28;19921;-83
2022/10/09 08:50:15;;;;;;;;;;;13.30;76.10;;;-151.14;100.00;62537.16;5032008;28;20310;-83
2022/10/09 08:52:46;;;;;;;;;;;13.30;76.30;;;12.26;100.00;62537.16;5014462;28;19921;-83
2022/10/09 08:55:17;;;;;;;;;;;13.30;76.40;;;12.21;100.00;62537.16;5030471;28;19921;-83
2022/10/09 08:57:47;;;;;;;;;;;13.30;76.60;;;12.16;100.00;62537.16;5032089;28;19921;-82
2022/10/09 09:00:16;;;;;;;;;;;13.20;76.70;;;-151.14;100.00;62537.16;5030692;28;20132;-83
2022/10/09 09:02:55;;;;;;;;;;;13.10;76.90;;;-151.14;100.00;62537.16;5014286;28;19929;-83
2022/10/09 09:05:31;;;;;;;;;;;13.10;77.10;;;-151.14;100.00;62537.16;5030384;28;19921;-83
2022/10/09 09:08:02;;;;;;;;;;;13.10;77.20;;;-151.14;100.00;62537.16;5014311;28;19921;-83
2022/10/09 09:10:36;;;;;;;;;;;13.10;77.30;;;-151.14;100.00;62537.16;5030794;28;20132;-83
2022/10/09 09:13:13;;;;;;;;;;;13.10;77.40;;;18.08;100.00;62537.16;5014133;28;19921;-83
2022/10/09 09:15:46;;;;;;;;;;;13.00;77.30;;;12.07;100.00;62537.16;5014151;28;19921;-83
2022/10/09 09:18:24;;;;;;;;;;;13.10;77.50;;;12.07;100.00;62537.16;5014279;28;19921;-83
2022/10/09 09:20:54;;;;;;;;;;;13.00;77.40;;;12.07;100.00;82780.28;5031588;28;19927;-83
2022/10/09 09:23:28;;;;;;;;;;;13.00;77.60;;;12.02;100.00;62537.16;5029912;28;20467;-83
2022/10/09 09:25:58;;;;;;;;;;;13.00;77.70;;;12.02;100.00;82773.19;5030396;28;19928;-83
2022/10/09 09:28:28;;;;;;;;;;;13.00;77.80;;;12.01;100.00;62537.16;5030468;28;19922;-83
2022/10/09 09:30:57;;;;;;;;;;;13.00;77.90;;;12.01;100.00;62537.16;5030233;28;19927;-83
2022/10/09 09:33:28;;;;;;;;;;;13.00;77.90;;;12.01;100.00;62537.16;5030991;28;19921;-83
2022/10/09 09:36:04;;;;;;;;;;;13.00;78.00;;;12.01;100.00;62537.16;5031622;28;19921;-83
2022/10/09 09:38:32;;;;;;;;;;;13.00;78.10;;;12.01;100.00;62537.16;5030298;28;19921;-83
2022/10/09 09:41:00;;;;;;;;;;;13.00;78.20;;;12.01;100.00;62537.16;5012895;28;19921;-83
2022/10/09 09:43:28;;;;;;;;;;;13.00;78.20;;;12.01;100.00;62537.16;5029717;28;19935;-83
2022/10/09 09:45:57;;;;;;;;;;;13.00;78.00;;;12.01;100.00;62537.16;5031362;28;19927;-83
2022/10/09 09:48:30;;;;;;;;;;;13.10;78.10;;;12.01;100.00;62537.16;5031436;28;19976;-83
2022/10/09 09:51:00;;;;;;;;;;;13.10;78.00;;;12.01;100.00;62537.16;5031262;28;19921;-83
2022/10/09 09:53:30;;;;;;;;;;;13.10;78.10;;;12.01;100.00;62537.16;5029625;28;19929;-83
2022/10/09 09:55:58;;;;;;;;;;;13.10;78.10;;;12.01;100.00;82771.78;5030189;28;19921;-83
2022/10/09 09:58:31;;;;;;;;;;;13.10;78.20;;;-151.14;100.00;62537.16;5030222;28;19975;-83
2022/10/09 10:01:02;;;;;;;;;;;13.10;78.00;;;12.12;100.00;82787.34;5031157;28;19921;-83
2022/10/09 10:03:30;;;;;;;;;;;13.10;77.80;;;12.10;100.00;82784.53;5013220;28;20208;-83
2022/10/09 10:05:58;;;;;;;;;;;13.10;77.70;;;-151.14;100.00;62537.16;5013706;28;19988;-83
2022/10/09 10:08:28;;;;;;;;;;;13.10;77.80;;;12.08;100.00;62537.16;5013659;28;19921;-83
2022/10/09 10:10:57;;;;;;;;;;;13.10;77.70;;;12.08;100.00;82782.06;5013494;28;19921;-83
2022/10/09 10:13:30;;;;;;;;;;;13.10;77.80;;;12.09;100.00;82783.09;5012856;28;19928;-83
2022/10/09 10:15:58;;;;;;;;;;;13.10;77.70;;;12.06;100.00;62537.16;5013402;28;19928;-83
2022/10/09 10:18:27;;;;;;;;;;;13.10;77.70;;;12.06;100.00;96705.13;5029926;28;19928;-83
2022/10/09 10:20:56;;;;;;;;;;;13.10;77.80;;;-151.14;100.00;62537.16;5030704;28;20223;-83
2022/10/09 10:23:32;;;;;;;;;;;13.10;77.70;;;-151.14;100.00;62537.16;5045908;28;19921;-83
2022/10/09 10:26:01;;;;;;;;;;;13.10;77.70;;;-151.14;100.00;62537.16;5013380;28;19951;-83
2022/10/09 10:28:32;;;;;;;;;;;13.10;77.70;;;12.03;100.00;82775.31;5013330;28;19928;-83
2022/10/09 10:31:00;;;;;;;;;;;13.00;77.70;;;11.97;100.00;62537.16;5013261;28;19927;-83
2022/10/09 10:33:29;;;;;;;;;;;13.00;78.60;;;11.97;100.00;62537.16;5029021;28;19930;-83
2022/10/09 10:35:58;;;;;;;;;;;13.00;77.90;;;11.97;100.00;62537.16;5046292;28;20227;-83
2022/10/09 10:38:31;;;;;;;;;;;13.00;78.00;;;11.97;100.00;82767.50;5029634;28;19927;-83
2022/10/09 10:41:04;;;;;;;;;;;13.00;78.00;;;11.98;100.00;82768.25;5029671;28;19935;-83
2022/10/09 10:43:35;;;;;;;;;;;13.00;78.00;;;11.93;100.00;62537.16;5045599;28;19921;-83
2022/10/09 10:46:07;;;;;;;;;;;12.90;78.20;;;11.93;100.00;62537.16;5049410;28;19927;-83
2022/10/09 10:48:38;;;;;;;;;;;13.00;78.20;;;11.93;100.00;62537.16;5049237;28;19928;-83
2022/10/09 10:51:10;;;;;;;;;;;12.90;78.20;;;11.93;100.00;62537.16;5032659;28;19921;-83
2022/10/09 10:53:48;;;;;;;;;;;13.00;78.20;;;11.93;100.00;82761.47;5051323;28;19929;-83
2022/10/09 10:56:19;;;;;;;;;;;12.90;78.20;;;11.95;100.00;62537.16;5052714;28;19927;-83
2022/10/09 10:58:52;;;;;;;;;;;13.00;78.20;;;11.95;100.00;62537.16;5053753;28;19921;-83
2022/10/09 11:01:26;;;;;;;;;;;13.00;78.10;;;11.95;100.00;62537.16;5053664;28;20119;-83
2022/10/09 11:04:04;;;;;;;;;;;12.90;78.20;;;-151.14;100.00;62537.16;5051861;28;19920;-83
2022/10/09 11:06:34;;;;;;;;;;;13.00;78.10;;;-151.14;100.00;62537.16;5053610;28;19921;-83
2022/10/09 11:09:07;;;;;;;;;;;13.00;78.10;;;12.00;100.00;82770.38;5035926;28;19920;-83
2022/10/09 11:11:37;;;;;;;;;;;13.00;78.10;;;11.95;100.00;82764.66;5035712;28;19921;-83
2022/10/09 11:14:12;;;;;;;;;;;12.90;78.00;;;11.92;100.00;62537.16;5052833;28;19920;-83
2022/10/09 11:16:45;;;;;;;;;;;13.00;78.10;;;11.92;100.00;62537.16;5033595;28;19921;-83
2022/10/09 11:19:24;;;;;;;;;;;13.00;78.20;;;11.92;100.00;62537.16;5032389;28;20228;-83
2022/10/09 11:21:57;;;;;;;;;;;13.00;78.20;;;-151.14;100.00;62537.16;5032603;28;19921;-83
2022/10/09 11:24:37;;;;;;;;;;;13.00;78.30;;;11.94;100.00;62537.16;5031802;28;20209;-84
2022/10/09 11:27:09;;;;;;;;;;;12.90;78.30;;;11.94;100.00;62537.16;5015718;28;19921;-84